sensor_id;sensor_type;location;lat;lon;timestamp;temperature;humidity
22379;DHT22;11357;49.990;7.370;2023-05-07T00:00:22;16.10;80.60
22379;DHT22;11357;49.990;7.370;2023-05-07T00:02:48;16.10;80.90
22379;DHT22;11357;49.990;7.370;2023-05-07T00:05:14;16.10;81.20
22379;DHT22;11357;49.990;7.370;2023-05-07T00:07:40;16.10;81.50
22379;DHT22;11357;49.990;7.370;2023-05-07T00:10:06;16.20;81.60
22379;DHT22;11357;49.990;7.370;2023-05-07T00:12:33;16.30;81.80
22379;DHT22;11357;49.990;7.370;2023-05-07T00:15:05;16.30;82.00
22379;DHT22;11357;49.990;7.370;2023-05-07T00:17:32;16.40;81.90
22379;DHT22;11357;49.990;7.370;2023-05-07T00:19:58;16.40;81.70
22379;DHT22;11357;49.990;7.370;2023-05-07T00:22:24;16.40;81.30
22379;DHT22;11357;49.990;7.370;2023-05-07T00:24:49;16.30;81.70
22379;DHT22;11357;49.990;7.370;2023-05-07T00:27:15;16.20;80.80
22379;DHT22;11357;49.990;7.370;2023-05-07T00:29:41;16.10;80.80
22379;DHT22;11357;49.990;7.370;2023-05-07T00:32:07;16.00;80.80
22379;DHT22;11357;49.990;7.370;2023-05-07T00:34:33;15.90;80.90
22379;DHT22;11357;49.990;7.370;2023-05-07T00:36:59;15.90;81.00
22379;DHT22;11357;49.990;7.370;2023-05-07T00:39:24;15.90;80.90
22379;DHT22;11357;49.990;7.370;2023-05-07T00:41:50;15.80;80.90
22379;DHT22;11357;49.990;7.370;2023-05-07T00:44:16;15.80;80.90
22379;DHT22;11357;49.990;7.370;2023-05-07T00:46:43;15.70;80.90
22379;DHT22;11357;49.990;7.370;2023-05-07T00:49:10;15.70;81.20
22379;DHT22;11357;49.990;7.370;2023-05-07T00:51:36;15.60;81.30
22379;DHT22;11357;49.990;7.370;2023-05-07T00:54:03;15.60;81.30
22379;DHT22;11357;49.990;7.370;2023-05-07T00:56:29;15.60;81.40
22379;DHT22;11357;49.990;7.370;2023-05-07T00:58:55;15.60;81.60
22379;DHT22;11357;49.990;7.370;2023-05-07T01:01:20;15.50;81.70
22379;DHT22;11357;49.990;7.370;2023-05-07T01:03:46;15.60;82.50
22379;DHT22;11357;49.990;7.370;2023-05-07T01:06:13;15.50;81.90
22379;DHT22;11357;49.990;7.370;2023-05-07T01:08:42;15.60;81.90
22379;DHT22;11357;49.990;7.370;2023-05-07T01:11:09;15.60;81.80
22379;DHT22;11357;49.990;7.370;2023-05-07T01:13:36;15.60;81.80
22379;DHT22;11357;49.990;7.370;2023-05-07T01:16:03;15.60;81.80
22379;DHT22;11357;49.990;7.370;2023-05-07T01:18:29;15.60;82.00
22379;DHT22;11357;49.990;7.370;2023-05-07T01:20:58;15.60;82.00
22379;DHT22;11357;49.990;7.370;2023-05-07T01:23:25;15.60;82.10
22379;DHT22;11357;49.990;7.370;2023-05-07T01:25:53;15.60;82.00
22379;DHT22;11357;49.990;7.370;2023-05-07T01:28:19;15.50;82.70
22379;DHT22;11357;49.990;7.370;2023-05-07T01:30:50;15.50;82.00
22379;DHT22;11357;49.990;7.370;2023-05-07T01:33:19;15.50;82.00
22379;DHT22;11357;49.990;7.370;2023-05-07T01:35:50;15.40;81.80
22379;DHT22;11357;49.990;7.370;2023-05-07T01:38:17;15.40;81.80
22379;DHT22;11357;49.990;7.370;2023-05-07T01:40:44;15.40;81.80
22379;DHT22;11357;49.990;7.370;2023-05-07T01:43:10;15.40;81.70
22379;DHT22;11357;49.990;7.370;2023-05-07T01:45:36;15.40;81.80
22379;DHT22;11357;49.990;7.370;2023-05-07T01:48:03;15.30;81.80
22379;DHT22;11357;49.990;7.370;2023-05-07T01:50:30;15.20;81.80
22379;DHT22;11357;49.990;7.370;2023-05-07T01:52:57;15.20;81.90
22379;DHT22;11357;49.990;7.370;2023-05-07T01:55:23;15.20;82.00
22379;DHT22;11357;49.990;7.370;2023-05-07T01:57:49;15.20;82.00
22379;DHT22;11357;49.990;7.370;2023-05-07T02:00:15;15.20;82.00
22379;DHT22;11357;49.990;7.370;2023-05-07T02:02:41;15.10;82.00
22379;DHT22;11357;49.990;7.370;2023-05-07T02:05:07;15.10;82.00
22379;DHT22;11357;49.990;7.370;2023-05-07T02:07:33;15.00;81.90
22379;DHT22;11357;49.990;7.370;2023-05-07T02:09:58;15.00;82.00
22379;DHT22;11357;49.990;7.370;2023-05-07T02:12:24;15.00;82.10
22379;DHT22;11357;49.990;7.370;2023-05-07T02:14:50;15.00;82.20
22379;DHT22;11357;49.990;7.370;2023-05-07T02:17:16;14.90;82.10
22379;DHT22;11357;49.990;7.370;2023-05-07T02:19:41;14.80;82.10
22379;DHT22;11357;49.990;7.370;2023-05-07T02:22:09;14.80;82.10
22379;DHT22;11357;49.990;7.370;2023-05-07T02:24:35;14.90;82.20
22379;DHT22;11357;49.990;7.370;2023-05-07T02:27:01;14.80;82.10
22379;DHT22;11357;49.990;7.370;2023-05-07T02:29:27;14.80;82.20
22379;DHT22;11357;49.990;7.370;2023-05-07T02:31:53;14.70;82.20
22379;DHT22;11357;49.990;7.370;2023-05-07T02:34:19;14.70;82.30
22379;DHT22;11357;49.990;7.370;2023-05-07T02:36:45;14.70;82.40
22379;DHT22;11357;49.990;7.370;2023-05-07T02:39:12;14.70;82.30
22379;DHT22;11357;49.990;7.370;2023-05-07T02:41:37;14.70;82.30
22379;DHT22;11357;49.990;7.370;2023-05-07T02:44:04;14.60;82.90
22379;DHT22;11357;49.990;7.370;2023-05-07T02:46:29;14.60;82.30
22379;DHT22;11357;49.990;7.370;2023-05-07T02:48:55;14.60;82.30
22379;DHT22;11357;49.990;7.370;2023-05-07T02:51:22;14.50;82.30
22379;DHT22;11357;49.990;7.370;2023-05-07T02:53:48;14.50;82.30
22379;DHT22;11357;49.990;7.370;2023-05-07T02:56:14;14.50;82.30
22379;DHT22;11357;49.990;7.370;2023-05-07T02:58:40;14.50;82.40
22379;DHT22;11357;49.990;7.370;2023-05-07T03:01:07;14.40;82.40
22379;DHT22;11357;49.990;7.370;2023-05-07T03:03:34;14.40;82.40
22379;DHT22;11357;49.990;7.370;2023-05-07T03:06:00;14.40;82.50
22379;DHT22;11357;49.990;7.370;2023-05-07T03:08:26;14.30;82.40
22379;DHT22;11357;49.990;7.370;2023-05-07T03:10:52;14.30;82.70
22379;DHT22;11357;49.990;7.370;2023-05-07T03:13:17;14.30;82.90
22379;DHT22;11357;49.990;7.370;2023-05-07T03:15:43;14.30;83.10
22379;DHT22;11357;49.990;7.370;2023-05-07T03:18:09;14.30;83.30
22379;DHT22;11357;49.990;7.370;2023-05-07T03:20:35;14.20;83.20
22379;DHT22;11357;49.990;7.370;2023-05-07T03:23:01;14.20;83.30
22379;DHT22;11357;49.990;7.370;2023-05-07T03:25:28;14.20;83.20
22379;DHT22;11357;49.990;7.370;2023-05-07T03:27:55;14.20;83.20
22379;DHT22;11357;49.990;7.370;2023-05-07T03:30:21;14.20;83.30
22379;DHT22;11357;49.990;7.370;2023-05-07T03:32:47;14.20;83.30
22379;DHT22;11357;49.990;7.370;2023-05-07T03:35:13;14.20;83.30
22379;DHT22;11357;49.990;7.370;2023-05-07T03:37:39;14.20;83.20
22379;DHT22;11357;49.990;7.370;2023-05-07T03:40:06;14.20;83.30
22379;DHT22;11357;49.990;7.370;2023-05-07T03:42:32;14.20;83.20
22379;DHT22;11357;49.990;7.370;2023-05-07T03:44:57;14.20;83.20
22379;DHT22;11357;49.990;7.370;2023-05-07T03:47:23;14.20;83.20
22379;DHT22;11357;49.990;7.370;2023-05-07T03:49:49;14.10;83.20
22379;DHT22;11357;49.990;7.370;2023-05-07T03:52:18;14.10;83.40
22379;DHT22;11357;49.990;7.370;2023-05-07T03:54:49;14.10;83.40
22379;DHT22;11357;49.990;7.370;2023-05-07T03:57:15;14.10;83.40
22379;DHT22;11357;49.990;7.370;2023-05-07T03:59:41;14.10;83.50
22379;DHT22;11357;49.990;7.370;2023-05-07T04:02:06;14.10;83.60
22379;DHT22;11357;49.990;7.370;2023-05-07T04:04:32;14.10;83.60
22379;DHT22;11357;49.990;7.370;2023-05-07T04:06:58;14.10;83.70
22379;DHT22;11357;49.990;7.370;2023-05-07T04:09:25;14.10;83.70
22379;DHT22;11357;49.990;7.370;2023-05-07T04:11:51;14.20;83.80
22379;DHT22;11357;49.990;7.370;2023-05-07T04:14:17;14.20;83.90
22379;DHT22;11357;49.990;7.370;2023-05-07T04:16:43;14.20;83.90
22379;DHT22;11357;49.990;7.370;2023-05-07T04:19:08;14.20;84.10
22379;DHT22;11357;49.990;7.370;2023-05-07T04:21:34;14.20;84.20
22379;DHT22;11357;49.990;7.370;2023-05-07T04:24:00;14.30;84.30
22379;DHT22;11357;49.990;7.370;2023-05-07T04:26:26;14.30;84.30
22379;DHT22;11357;49.990;7.370;2023-05-07T04:28:51;14.30;84.30
22379;DHT22;11357;49.990;7.370;2023-05-07T04:31:17;14.30;84.40
22379;DHT22;11357;49.990;7.370;2023-05-07T04:33:43;14.30;84.70
22379;DHT22;11357;49.990;7.370;2023-05-07T04:36:08;14.40;84.90
22379;DHT22;11357;49.990;7.370;2023-05-07T04:38:34;14.40;84.90
22379;DHT22;11357;49.990;7.370;2023-05-07T04:41:04;14.40;84.80
22379;DHT22;11357;49.990;7.370;2023-05-07T04:43:30;14.50;84.80
22379;DHT22;11357;49.990;7.370;2023-05-07T04:45:56;14.60;84.70
22379;DHT22;11357;49.990;7.370;2023-05-07T04:48:22;14.60;84.60
22379;DHT22;11357;49.990;7.370;2023-05-07T04:50:48;14.60;84.60
22379;DHT22;11357;49.990;7.370;2023-05-07T04:53:14;14.70;84.70
22379;DHT22;11357;49.990;7.370;2023-05-07T04:55:40;14.70;84.60
22379;DHT22;11357;49.990;7.370;2023-05-07T04:58:06;14.70;84.60
22379;DHT22;11357;49.990;7.370;2023-05-07T05:00:31;14.80;84.60
22379;DHT22;11357;49.990;7.370;2023-05-07T05:02:57;15.00;84.70
22379;DHT22;11357;49.990;7.370;2023-05-07T05:05:23;15.10;84.80
22379;DHT22;11357;49.990;7.370;2023-05-07T05:07:48;15.30;85.60
22379;DHT22;11357;49.990;7.370;2023-05-07T05:10:14;15.40;84.90
22379;DHT22;11357;49.990;7.370;2023-05-07T05:12:41;15.60;84.80
22379;DHT22;11357;49.990;7.370;2023-05-07T05:15:08;15.70;84.60
22379;DHT22;11357;49.990;7.370;2023-05-07T05:17:33;15.80;84.40
22379;DHT22;11357;49.990;7.370;2023-05-07T05:20:00;15.80;84.20
22379;DHT22;11357;49.990;7.370;2023-05-07T05:22:26;15.90;84.10
22379;DHT22;11357;49.990;7.370;2023-05-07T05:24:52;15.90;84.10
22379;DHT22;11357;49.990;7.370;2023-05-07T05:27:17;16.00;84.10
22379;DHT22;11357;49.990;7.370;2023-05-07T05:29:43;16.10;84.10
22379;DHT22;11357;49.990;7.370;2023-05-07T05:32:09;16.10;83.90
22379;DHT22;11357;49.990;7.370;2023-05-07T05:34:35;16.10;83.90
22379;DHT22;11357;49.990;7.370;2023-05-07T05:37:01;16.10;84.00
22379;DHT22;11357;49.990;7.370;2023-05-07T05:39:26;16.10;84.10
22379;DHT22;11357;49.990;7.370;2023-05-07T05:41:52;16.20;84.20
22379;DHT22;11357;49.990;7.370;2023-05-07T05:44:18;16.20;84.10
22379;DHT22;11357;49.990;7.370;2023-05-07T05:46:44;16.30;84.10
22379;DHT22;11357;49.990;7.370;2023-05-07T05:49:09;16.30;84.10
22379;DHT22;11357;49.990;7.370;2023-05-07T05:51:35;16.60;84.20
22379;DHT22;11357;49.990;7.370;2023-05-07T05:54:01;16.70;84.00
22379;DHT22;11357;49.990;7.370;2023-05-07T05:56:27;16.90;83.80
22379;DHT22;11357;49.990;7.370;2023-05-07T05:58:52;17.10;83.60
22379;DHT22;11357;49.990;7.370;2023-05-07T06:01:18;17.30;83.50
22379;DHT22;11357;49.990;7.370;2023-05-07T06:03:44;17.50;83.30
22379;DHT22;11357;49.990;7.370;2023-05-07T06:06:10;17.60;83.10
22379;DHT22;11357;49.990;7.370;2023-05-07T06:08:36;17.70;83.00
22379;DHT22;11357;49.990;7.370;2023-05-07T06:11:02;17.90;82.80
22379;DHT22;11357;49.990;7.370;2023-05-07T06:13:28;18.00;82.80
22379;DHT22;11357;49.990;7.370;2023-05-07T06:15:54;18.10;82.60
22379;DHT22;11357;49.990;7.370;2023-05-07T06:18:19;18.20;82.50
22379;DHT22;11357;49.990;7.370;2023-05-07T06:20:45;18.30;82.40
22379;DHT22;11357;49.990;7.370;2023-05-07T06:23:11;18.40;82.20
22379;DHT22;11357;49.990;7.370;2023-05-07T06:25:37;18.50;82.40
22379;DHT22;11357;49.990;7.370;2023-05-07T06:28:02;18.60;81.70
22379;DHT22;11357;49.990;7.370;2023-05-07T06:30:28;18.70;81.30
22379;DHT22;11357;49.990;7.370;2023-05-07T06:32:54;18.80;81.10
22379;DHT22;11357;49.990;7.370;2023-05-07T06:35:20;18.90;80.90
22379;DHT22;11357;49.990;7.370;2023-05-07T06:37:45;19.00;80.70
22379;DHT22;11357;49.990;7.370;2023-05-07T06:40:11;19.00;80.50
22379;DHT22;11357;49.990;7.370;2023-05-07T06:42:37;19.10;80.20
22379;DHT22;11357;49.990;7.370;2023-05-07T06:45:03;19.20;79.70
22379;DHT22;11357;49.990;7.370;2023-05-07T06:47:30;19.20;79.40
22379;DHT22;11357;49.990;7.370;2023-05-07T06:49:55;19.20;78.90
22379;DHT22;11357;49.990;7.370;2023-05-07T06:52:21;19.30;78.70
22379;DHT22;11357;49.990;7.370;2023-05-07T06:54:47;19.30;78.30
22379;DHT22;11357;49.990;7.370;2023-05-07T06:57:12;19.40;78.00
22379;DHT22;11357;49.990;7.370;2023-05-07T06:59:38;19.40;77.70
22379;DHT22;11357;49.990;7.370;2023-05-07T07:02:04;19.60;78.00
22379;DHT22;11357;49.990;7.370;2023-05-07T07:04:30;19.60;76.90
22379;DHT22;11357;49.990;7.370;2023-05-07T07:06:56;19.60;76.70
22379;DHT22;11357;49.990;7.370;2023-05-07T07:09:22;19.80;76.40
22379;DHT22;11357;49.990;7.370;2023-05-07T07:11:48;20.00;76.00
22379;DHT22;11357;49.990;7.370;2023-05-07T07:14:14;20.30;75.60
22379;DHT22;11357;49.990;7.370;2023-05-07T07:16:40;20.60;74.80
22379;DHT22;11357;49.990;7.370;2023-05-07T07:19:06;20.90;74.20
22379;DHT22;11357;49.990;7.370;2023-05-07T07:21:32;21.10;73.30
22379;DHT22;11357;49.990;7.370;2023-05-07T07:23:57;21.20;72.50
22379;DHT22;11357;49.990;7.370;2023-05-07T07:26:23;21.40;72.20
22379;DHT22;11357;49.990;7.370;2023-05-07T07:28:49;21.70;71.60
22379;DHT22;11357;49.990;7.370;2023-05-07T07:31:15;22.10;70.90
22379;DHT22;11357;49.990;7.370;2023-05-07T07:33:41;22.50;70.20
22379;DHT22;11357;49.990;7.370;2023-05-07T07:36:07;22.80;68.70
22379;DHT22;11357;49.990;7.370;2023-05-07T07:38:33;23.10;68.00
22379;DHT22;11357;49.990;7.370;2023-05-07T07:40:59;23.40;67.30
22379;DHT22;11357;49.990;7.370;2023-05-07T07:43:25;23.70;66.80
22379;DHT22;11357;49.990;7.370;2023-05-07T07:45:51;23.90;65.50
22379;DHT22;11357;49.990;7.370;2023-05-07T07:48:17;24.00;64.80
22379;DHT22;11357;49.990;7.370;2023-05-07T07:50:42;24.10;64.20
22379;DHT22;11357;49.990;7.370;2023-05-07T07:53:08;24.20;63.70
22379;DHT22;11357;49.990;7.370;2023-05-07T07:55:38;24.30;63.20
22379;DHT22;11357;49.990;7.370;2023-05-07T07:58:04;24.40;62.60
22379;DHT22;11357;49.990;7.370;2023-05-07T08:00:30;24.50;62.30
22379;DHT22;11357;49.990;7.370;2023-05-07T08:02:56;24.70;62.30
22379;DHT22;11357;49.990;7.370;2023-05-07T08:05:22;25.00;61.50
22379;DHT22;11357;49.990;7.370;2023-05-07T08:07:48;25.30;60.50
22379;DHT22;11357;49.990;7.370;2023-05-07T08:10:18;25.60;59.80
22379;DHT22;11357;49.990;7.370;2023-05-07T08:12:51;25.70;59.10
22379;DHT22;11357;49.990;7.370;2023-05-07T08:15:17;25.70;59.00
22379;DHT22;11357;49.990;7.370;2023-05-07T08:17:43;25.80;59.10
22379;DHT22;11357;49.990;7.370;2023-05-07T08:20:09;26.00;58.90
22379;DHT22;11357;49.990;7.370;2023-05-07T08:22:35;26.10;58.80
22379;DHT22;11357;49.990;7.370;2023-05-07T08:25:02;26.20;58.50
22379;DHT22;11357;49.990;7.370;2023-05-07T08:27:27;26.30;58.00
22379;DHT22;11357;49.990;7.370;2023-05-07T08:29:53;26.40;57.60
22379;DHT22;11357;49.990;7.370;2023-05-07T08:32:20;26.50;57.30
22379;DHT22;11357;49.990;7.370;2023-05-07T08:34:47;26.70;56.80
22379;DHT22;11357;49.990;7.370;2023-05-07T08:37:13;26.90;56.40
22379;DHT22;11357;49.990;7.370;2023-05-07T08:39:39;27.00;56.00
22379;DHT22;11357;49.990;7.370;2023-05-07T08:42:05;27.10;55.60
22379;DHT22;11357;49.990;7.370;2023-05-07T08:44:35;27.10;55.40
22379;DHT22;11357;49.990;7.370;2023-05-07T08:47:01;27.00;55.20
22379;DHT22;11357;49.990;7.370;2023-05-07T08:49:28;26.80;55.30
22379;DHT22;11357;49.990;7.370;2023-05-07T08:51:54;26.70;55.30
22379;DHT22;11357;49.990;7.370;2023-05-07T08:54:21;26.70;55.40
22379;DHT22;11357;49.990;7.370;2023-05-07T08:56:48;26.60;55.50
22379;DHT22;11357;49.990;7.370;2023-05-07T08:59:13;26.50;55.30
22379;DHT22;11357;49.990;7.370;2023-05-07T09:01:39;26.60;55.40
22379;DHT22;11357;49.990;7.370;2023-05-07T09:04:05;26.60;55.40
22379;DHT22;11357;49.990;7.370;2023-05-07T09:06:33;26.50;55.30
22379;DHT22;11357;49.990;7.370;2023-05-07T09:08:58;26.60;55.40
22379;DHT22;11357;49.990;7.370;2023-05-07T09:11:27;26.70;55.40
22379;DHT22;11357;49.990;7.370;2023-05-07T09:13:54;26.80;55.00
22379;DHT22;11357;49.990;7.370;2023-05-07T09:16:25;27.00;54.50
22379;DHT22;11357;49.990;7.370;2023-05-07T09:18:52;27.10;54.00
22379;DHT22;11357;49.990;7.370;2023-05-07T09:21:20;27.20;53.80
22379;DHT22;11357;49.990;7.370;2023-05-07T09:23:52;27.30;53.70
22379;DHT22;11357;49.990;7.370;2023-05-07T09:26:21;27.50;53.60
22379;DHT22;11357;49.990;7.370;2023-05-07T09:28:49;27.80;53.50
22379;DHT22;11357;49.990;7.370;2023-05-07T09:31:15;28.10;53.10
22379;DHT22;11357;49.990;7.370;2023-05-07T09:33:41;28.30;52.60
22379;DHT22;11357;49.990;7.370;2023-05-07T09:36:09;28.50;52.00
22379;DHT22;11357;49.990;7.370;2023-05-07T09:38:39;28.70;51.50
22379;DHT22;11357;49.990;7.370;2023-05-07T09:41:08;29.00;51.00
22379;DHT22;11357;49.990;7.370;2023-05-07T09:43:35;29.20;50.50
22379;DHT22;11357;49.990;7.370;2023-05-07T09:46:08;29.50;50.00
22379;DHT22;11357;49.990;7.370;2023-05-07T09:48:38;29.70;49.40
22379;DHT22;11357;49.990;7.370;2023-05-07T09:51:11;29.80;49.00
22379;DHT22;11357;49.990;7.370;2023-05-07T09:53:39;30.00;48.50
22379;DHT22;11357;49.990;7.370;2023-05-07T09:56:05;30.40;48.30
22379;DHT22;11357;49.990;7.370;2023-05-07T09:58:32;30.50;47.50
22379;DHT22;11357;49.990;7.370;2023-05-07T10:00:59;30.50;47.00
22379;DHT22;11357;49.990;7.370;2023-05-07T10:03:27;30.50;47.00
22379;DHT22;11357;49.990;7.370;2023-05-07T10:05:55;30.40;46.90
22379;DHT22;11357;49.990;7.370;2023-05-07T10:08:21;30.20;46.90
22379;DHT22;11357;49.990;7.370;2023-05-07T10:10:48;30.10;47.20
22379;DHT22;11357;49.990;7.370;2023-05-07T10:13:14;30.00;47.40
22379;DHT22;11357;49.990;7.370;2023-05-07T10:15:41;30.10;47.60
22379;DHT22;11357;49.990;7.370;2023-05-07T10:18:07;30.30;47.60
22379;DHT22;11357;49.990;7.370;2023-05-07T10:20:36;30.50;47.30
22379;DHT22;11357;49.990;7.370;2023-05-07T10:23:04;30.80;47.00
22379;DHT22;11357;49.990;7.370;2023-05-07T10:25:31;30.80;45.90
22379;DHT22;11357;49.990;7.370;2023-05-07T10:28:01;30.70;45.70
22379;DHT22;11357;49.990;7.370;2023-05-07T10:33:28;30.20;46.30
22379;DHT22;11357;49.990;7.370;2023-05-07T10:36:01;30.30;47.10
22379;DHT22;11357;49.990;7.370;2023-05-07T10:38:30;30.30;46.10
22379;DHT22;11357;49.990;7.370;2023-05-07T10:40:55;30.20;46.30
22379;DHT22;11357;49.990;7.370;2023-05-07T10:43:21;30.40;46.70
22379;DHT22;11357;49.990;7.370;2023-05-07T10:46:14;30.70;46.10
22379;DHT22;11357;49.990;7.370;2023-05-07T10:51:27;31.40;44.80
22379;DHT22;11357;49.990;7.370;2023-05-07T10:56:41;32.10;43.20
22379;DHT22;11357;49.990;7.370;2023-05-07T10:59:29;32.40;42.30
22379;DHT22;11357;49.990;7.370;2023-05-07T11:02:03;32.80;42.10
22379;DHT22;11357;49.990;7.370;2023-05-07T11:04:29;33.40;41.20
22379;DHT22;11357;49.990;7.370;2023-05-07T11:13:02;34.50;38.10
22379;DHT22;11357;49.990;7.370;2023-05-07T11:15:06;34.30;37.20
22379;DHT22;11357;49.990;7.370;2023-05-07T11:17:33;34.40;37.70
22379;DHT22;11357;49.990;7.370;2023-05-07T11:20:03;34.70;37.50
22379;DHT22;11357;49.990;7.370;2023-05-07T11:22:45;35.00;36.80
22379;DHT22;11357;49.990;7.370;2023-05-07T11:25:18;34.90;35.70
22379;DHT22;11357;49.990;7.370;2023-05-07T11:27:44;34.60;36.40
22379;DHT22;11357;49.990;7.370;2023-05-07T11:30:17;34.70;36.50
22379;DHT22;11357;49.990;7.370;2023-05-07T11:32:47;34.90;36.30
22379;DHT22;11357;49.990;7.370;2023-05-07T11:35:15;35.10;36.00
22379;DHT22;11357;49.990;7.370;2023-05-07T11:37:42;35.10;35.90
22379;DHT22;11357;49.990;7.370;2023-05-07T11:40:10;34.70;36.00
22379;DHT22;11357;49.990;7.370;2023-05-07T11:42:43;34.40;36.40
22379;DHT22;11357;49.990;7.370;2023-05-07T11:45:09;34.00;36.40
22379;DHT22;11357;49.990;7.370;2023-05-07T11:47:35;33.90;36.90
22379;DHT22;11357;49.990;7.370;2023-05-07T11:50:07;33.60;36.70
22379;DHT22;11357;49.990;7.370;2023-05-07T11:52:34;33.10;37.50
22379;DHT22;11357;49.990;7.370;2023-05-07T11:55:01;32.80;37.90
22379;DHT22;11357;49.990;7.370;2023-05-07T11:57:27;32.60;38.20
22379;DHT22;11357;49.990;7.370;2023-05-07T11:59:58;32.20;38.70
22379;DHT22;11357;49.990;7.370;2023-05-07T12:02:25;31.70;38.80
22379;DHT22;11357;49.990;7.370;2023-05-07T12:04:54;31.40;39.10
22379;DHT22;11357;49.990;7.370;2023-05-07T12:07:20;31.10;39.70
22379;DHT22;11357;49.990;7.370;2023-05-07T12:09:46;30.80;40.60
22379;DHT22;11357;49.990;7.370;2023-05-07T12:12:13;30.60;41.20
22379;DHT22;11357;49.990;7.370;2023-05-07T12:14:45;30.40;41.30
22379;DHT22;11357;49.990;7.370;2023-05-07T12:17:13;30.30;41.50
22379;DHT22;11357;49.990;7.370;2023-05-07T12:19:40;30.10;41.40
22379;DHT22;11357;49.990;7.370;2023-05-07T12:22:10;29.90;41.60
22379;DHT22;11357;49.990;7.370;2023-05-07T12:24:56;29.80;41.90
22379;DHT22;11357;49.990;7.370;2023-05-07T12:27:22;30.00;42.10
22379;DHT22;11357;49.990;7.370;2023-05-07T12:29:49;30.10;41.70
22379;DHT22;11357;49.990;7.370;2023-05-07T12:32:18;30.10;41.70
22379;DHT22;11357;49.990;7.370;2023-05-07T12:34:45;30.10;41.70
22379;DHT22;11357;49.990;7.370;2023-05-07T12:37:11;30.20;41.40
22379;DHT22;11357;49.990;7.370;2023-05-07T12:39:43;30.20;41.20
22379;DHT22;11357;49.990;7.370;2023-05-07T12:42:15;30.30;41.20
22379;DHT22;11357;49.990;7.370;2023-05-07T12:44:41;30.50;41.20
22379;DHT22;11357;49.990;7.370;2023-05-07T12:47:07;30.60;41.00
22379;DHT22;11357;49.990;7.370;2023-05-07T12:49:35;30.70;41.20
22379;DHT22;11357;49.990;7.370;2023-05-07T12:52:03;31.00;41.20
22379;DHT22;11357;49.990;7.370;2023-05-07T12:54:37;31.30;40.80
22379;DHT22;11357;49.990;7.370;2023-05-07T12:57:05;31.80;40.60
22379;DHT22;11357;49.990;7.370;2023-05-07T12:59:41;32.00;40.00
22379;DHT22;11357;49.990;7.370;2023-05-07T13:02:08;32.00;39.30
22379;DHT22;11357;49.990;7.370;2023-05-07T13:04:34;31.80;39.60
22379;DHT22;11357;49.990;7.370;2023-05-07T13:07:01;31.70;39.60
22379;DHT22;11357;49.990;7.370;2023-05-07T13:09:26;31.60;39.60
22379;DHT22;11357;49.990;7.370;2023-05-07T13:11:54;31.70;39.40
22379;DHT22;11357;49.990;7.370;2023-05-07T13:14:20;31.60;39.20
22379;DHT22;11357;49.990;7.370;2023-05-07T13:16:47;31.80;39.10
22379;DHT22;11357;49.990;7.370;2023-05-07T13:19:13;31.70;39.20
22379;DHT22;11357;49.990;7.370;2023-05-07T13:21:38;31.80;39.30
22379;DHT22;11357;49.990;7.370;2023-05-07T13:24:04;31.60;39.30
22379;DHT22;11357;49.990;7.370;2023-05-07T13:26:31;31.60;39.90
22379;DHT22;11357;49.990;7.370;2023-05-07T13:28:57;31.60;39.90
22379;DHT22;11357;49.990;7.370;2023-05-07T13:31:23;31.50;40.20
22379;DHT22;11357;49.990;7.370;2023-05-07T13:33:48;31.60;39.70
22379;DHT22;11357;49.990;7.370;2023-05-07T13:36:15;31.70;39.70
22379;DHT22;11357;49.990;7.370;2023-05-07T13:38:40;32.00;39.70
22379;DHT22;11357;49.990;7.370;2023-05-07T13:41:07;32.20;39.80
22379;DHT22;11357;49.990;7.370;2023-05-07T13:43:33;32.50;39.50
22379;DHT22;11357;49.990;7.370;2023-05-07T13:46:00;32.50;39.30
22379;DHT22;11357;49.990;7.370;2023-05-07T13:48:26;32.40;39.40
22379;DHT22;11357;49.990;7.370;2023-05-07T13:50:53;32.30;39.00
22379;DHT22;11357;49.990;7.370;2023-05-07T13:53:19;32.50;38.90
22379;DHT22;11357;49.990;7.370;2023-05-07T13:55:45;32.80;38.40
22379;DHT22;11357;49.990;7.370;2023-05-07T13:58:11;33.10;38.00
22379;DHT22;11357;49.990;7.370;2023-05-07T14:00:37;33.40;37.60
22379;DHT22;11357;49.990;7.370;2023-05-07T14:03:04;33.40;37.40
22379;DHT22;11357;49.990;7.370;2023-05-07T14:05:30;33.10;38.00
22379;DHT22;11357;49.990;7.370;2023-05-07T14:07:57;32.50;38.40
22379;DHT22;11357;49.990;7.370;2023-05-07T14:10:23;32.00;39.00
22379;DHT22;11357;49.990;7.370;2023-05-07T14:12:49;31.30;39.50
22379;DHT22;11357;49.990;7.370;2023-05-07T14:15:15;30.60;40.20
22379;DHT22;11357;49.990;7.370;2023-05-07T14:17:42;30.00;41.20
22379;DHT22;11357;49.990;7.370;2023-05-07T14:20:08;29.60;42.00
22379;DHT22;11357;49.990;7.370;2023-05-07T14:22:36;29.20;42.50
22379;DHT22;11357;49.990;7.370;2023-05-07T14:25:01;28.90;43.10
22379;DHT22;11357;49.990;7.370;2023-05-07T14:27:27;28.80;43.50
22379;DHT22;11357;49.990;7.370;2023-05-07T14:29:53;28.50;43.70
22379;DHT22;11357;49.990;7.370;2023-05-07T14:32:20;28.30;44.10
22379;DHT22;11357;49.990;7.370;2023-05-07T14:34:46;28.00;44.30
22379;DHT22;11357;49.990;7.370;2023-05-07T14:37:12;27.70;45.60
22379;DHT22;11357;49.990;7.370;2023-05-07T14:39:38;27.40;45.90
22379;DHT22;11357;49.990;7.370;2023-05-07T14:42:04;27.10;46.70
22379;DHT22;11357;49.990;7.370;2023-05-07T14:44:31;26.80;47.40
22379;DHT22;11357;49.990;7.370;2023-05-07T14:46:56;26.60;47.90
22379;DHT22;11357;49.990;7.370;2023-05-07T14:49:22;26.30;48.10
22379;DHT22;11357;49.990;7.370;2023-05-07T14:51:49;26.20;48.40
22379;DHT22;11357;49.990;7.370;2023-05-07T14:54:15;26.00;48.70
22379;DHT22;11357;49.990;7.370;2023-05-07T14:56:41;25.90;48.90
22379;DHT22;11357;49.990;7.370;2023-05-07T14:59:08;25.80;49.30
22379;DHT22;11357;49.990;7.370;2023-05-07T15:01:35;25.80;49.70
22379;DHT22;11357;49.990;7.370;2023-05-07T15:04:03;25.60;50.70
22379;DHT22;11357;49.990;7.370;2023-05-07T15:06:29;25.30;51.80
22379;DHT22;11357;49.990;7.370;2023-05-07T15:08:55;25.00;53.20
22379;DHT22;11357;49.990;7.370;2023-05-07T15:11:21;24.80;53.80
22379;DHT22;11357;49.990;7.370;2023-05-07T15:13:46;24.50;54.00
22379;DHT22;11357;49.990;7.370;2023-05-07T15:16:12;24.10;54.60
22379;DHT22;11357;49.990;7.370;2023-05-07T15:18:38;23.80;55.20
22379;DHT22;11357;49.990;7.370;2023-05-07T15:21:04;23.30;55.90
22379;DHT22;11357;49.990;7.370;2023-05-07T15:23:30;23.00;57.20
22379;DHT22;11357;49.990;7.370;2023-05-07T15:25:58;22.60;58.00
22379;DHT22;11357;49.990;7.370;2023-05-07T15:28:24;22.30;59.40
22379;DHT22;11357;49.990;7.370;2023-05-07T15:30:50;21.90;60.40
22379;DHT22;11357;49.990;7.370;2023-05-07T15:33:16;21.60;61.50
22379;DHT22;11357;49.990;7.370;2023-05-07T15:35:42;21.30;62.60
22379;DHT22;11357;49.990;7.370;2023-05-07T15:38:07;21.00;64.10
22379;DHT22;11357;49.990;7.370;2023-05-07T15:40:34;20.80;65.70